createdAt,value
2018-05-13T00:01:19.245Z,18.90
2018-05-13T00:03:46.778Z,18.87
2018-05-13T00:06:14.330Z,18.93
2018-05-13T00:08:41.863Z,17.60
2018-05-13T00:11:10.176Z,19.27
2018-05-13T00:13:37.720Z,17.93
2018-05-13T00:16:05.270Z,19.13
2018-05-13T00:18:32.808Z,19.90
2018-05-13T00:21:00.357Z,20.33
2018-05-13T00:23:27.891Z,19.00
2018-05-13T00:25:55.437Z,21.13
2018-05-13T00:28:22.967Z,17.70
2018-05-13T00:30:50.507Z,20.20
2018-05-13T00:33:18.035Z,20.27
2018-05-13T00:35:45.577Z,19.13
2018-05-13T00:38:13.120Z,20.50
2018-05-13T00:40:40.691Z,20.90
2018-05-13T00:43:08.229Z,20.80
2018-05-13T00:45:35.793Z,20.07
2018-05-13T00:48:03.325Z,21.70
2018-05-13T00:50:30.904Z,21.47
2018-05-13T00:52:58.443Z,22.07
2018-05-13T00:55:25.988Z,20.57
2018-05-13T00:57:53.518Z,22.33
2018-05-13T01:00:21.068Z,20.30
2018-05-13T01:02:48.593Z,20.87
2018-05-13T01:05:16.172Z,20.43
2018-05-13T01:07:43.709Z,20.60
2018-05-13T01:10:11.251Z,23.73
2018-05-13T01:12:45.320Z,21.80
2018-05-13T01:15:12.849Z,23.63
2018-05-13T01:17:40.394Z,24.07
2018-05-13T01:20:07.916Z,21.67
2018-05-13T01:22:35.460Z,23.27
2018-05-13T01:25:02.983Z,21.87
2018-05-13T01:27:30.524Z,21.03
2018-05-13T01:29:58.046Z,20.43
2018-05-13T01:32:25.583Z,21.80
2018-05-13T01:34:53.110Z,21.50
2018-05-13T01:37:20.643Z,21.93
2018-05-13T01:39:48.172Z,22.70
2018-05-13T01:42:15.713Z,23.63
2018-05-13T01:44:43.236Z,23.07
2018-05-13T01:47:10.780Z,22.20
2018-05-13T01:49:38.313Z,21.83
2018-05-13T01:52:05.852Z,22.83
2018-05-13T01:54:33.375Z,22.20
2018-05-13T01:57:00.918Z,22.03
2018-05-13T01:59:28.448Z,22.23
2018-05-13T02:01:55.983Z,26.43
2018-05-13T02:04:23.507Z,24.30
2018-05-13T02:06:51.040Z,25.30
2018-05-13T02:09:18.563Z,23.67
2018-05-13T02:11:46.112Z,22.90
2018-05-13T02:14:13.641Z,23.83
2018-05-13T02:16:41.199Z,22.97
2018-05-13T02:19:08.735Z,23.17
2018-05-13T02:21:36.278Z,21.30
2018-05-13T02:24:04.571Z,21.93
2018-05-13T02:26:32.110Z,20.03
2018-05-13T02:28:59.656Z,20.00
2018-05-13T02:31:27.177Z,21.40
2018-05-13T02:33:54.715Z,23.13
2018-05-13T02:36:22.235Z,21.63
2018-05-13T02:38:49.787Z,19.30
2018-05-13T02:41:17.328Z,22.43
2018-05-13T02:43:45.640Z,18.50
2018-05-13T02:46:13.172Z,19.50
2018-05-13T02:48:41.496Z,19.67
2018-05-13T02:51:09.024Z,22.10
2018-05-13T02:53:36.557Z,20.97
2018-05-13T02:56:04.850Z,21.37
2018-05-13T02:58:32.396Z,20.87
2018-05-13T03:01:00.688Z,23.03
2018-05-13T03:03:28.231Z,24.57
2018-05-13T03:05:56.528Z,24.20
2018-05-13T03:08:24.068Z,21.67
2018-05-13T03:10:52.362Z,19.80
2018-05-13T03:13:19.899Z,20.07
2018-05-13T03:15:48.193Z,18.77
2018-05-13T03:18:15.755Z,18.87
2018-05-13T03:20:43.272Z,20.53
2018-05-13T03:23:10.811Z,20.10
2018-05-13T03:25:38.340Z,19.73
2018-05-13T03:28:06.020Z,19.83
2018-05-13T03:30:33.565Z,21.73
2018-05-13T03:33:01.120Z,19.23
2018-05-13T03:35:28.652Z,19.67
2018-05-13T03:37:56.186Z,18.87
2018-05-13T03:40:24.504Z,19.90
2018-05-13T03:42:52.034Z,19.13
2018-05-13T03:45:19.583Z,17.40
2018-05-13T03:47:47.877Z,18.77
2018-05-13T03:50:15.420Z,19.83
2018-05-13T03:52:43.710Z,20.53
2018-05-13T03:55:11.254Z,21.07
2018-05-13T03:57:39.549Z,18.90
2018-05-13T04:00:07.097Z,20.67
2018-05-13T04:02:34.628Z,19.83
2018-05-13T04:05:02.166Z,19.50
2018-05-13T04:07:30.508Z,22.60
2018-05-13T04:10:09.876Z,20.30
2018-05-13T04:12:49.033Z,21.30
2018-05-13T04:15:20.301Z,20.17
2018-05-13T04:17:47.825Z,19.90
2018-05-13T04:20:15.383Z,22.30
2018-05-13T04:22:42.912Z,21.23
2018-05-13T04:25:10.448Z,22.17
2018-05-13T04:27:37.967Z,21.47
2018-05-13T04:30:05.504Z,22.73
2018-05-13T04:32:33.019Z,22.87
2018-05-13T04:35:00.564Z,22.30
2018-05-13T04:37:28.089Z,19.47
2018-05-13T04:39:55.624Z,21.43
2018-05-13T04:42:23.166Z,23.13
2018-05-13T04:44:50.727Z,26.90
2018-05-13T04:47:18.253Z,26.87
2018-05-13T04:49:45.787Z,25.40
2018-05-13T04:52:13.330Z,25.60
2018-05-13T04:54:42.379Z,26.83
2018-05-13T04:57:09.917Z,28.37
2018-05-13T04:59:37.446Z,26.43
2018-05-13T05:02:05.005Z,28.30
2018-05-13T05:04:32.524Z,29.43
2018-05-13T05:07:00.072Z,27.07
2018-05-13T05:09:27.596Z,28.97
2018-05-13T05:11:55.490Z,29.50
2018-05-13T05:14:23.020Z,29.67
2018-05-13T05:16:51.328Z,30.77
2018-05-13T05:19:18.848Z,28.13
2018-05-13T05:21:47.149Z,28.37
2018-05-13T05:24:14.667Z,30.77
2018-05-13T05:26:42.304Z,30.37
2018-05-13T05:29:09.836Z,28.97
2018-05-13T05:31:37.375Z,30.87
2018-05-13T05:34:04.954Z,30.43
2018-05-13T05:36:32.506Z,31.33
2018-05-13T05:39:00.033Z,28.77
2018-05-13T05:41:28.349Z,30.23
2018-05-13T05:43:55.882Z,30.20
2018-05-13T05:46:23.425Z,28.83
2018-05-13T05:48:51.223Z,29.50
2018-05-13T05:51:18.777Z,29.93
2018-05-13T05:53:46.303Z,27.70
2018-05-13T05:56:14.608Z,25.60
2018-05-13T05:58:42.149Z,29.17
2018-05-13T06:01:09.683Z,26.70
2018-05-13T06:03:37.224Z,26.87
2018-05-13T06:06:04.753Z,25.20
2018-05-13T06:08:32.292Z,25.43
2018-05-13T06:10:59.822Z,25.07
2018-05-13T06:13:27.366Z,23.27
2018-05-13T06:15:54.884Z,23.73
2018-05-13T06:18:22.425Z,22.90
2018-05-13T06:20:49.949Z,24.27
2018-05-13T06:23:17.495Z,23.53
2018-05-13T06:25:45.020Z,23.77
2018-05-13T06:28:12.551Z,22.77
2018-05-13T06:30:40.078Z,22.10
2018-05-13T06:33:07.628Z,21.80
2018-05-13T06:35:35.151Z,21.43
2018-05-13T06:38:02.701Z,21.70
2018-05-13T06:40:30.237Z,22.20
2018-05-13T06:42:57.783Z,20.50
2018-05-13T06:45:25.324Z,21.27
2018-05-13T06:47:53.632Z,20.23
2018-05-13T06:50:21.152Z,19.67
2018-05-13T06:52:49.467Z,19.00
2018-05-13T06:55:16.991Z,19.83
2018-05-13T06:57:45.306Z,18.77
2018-05-13T07:00:12.844Z,19.80
2018-05-13T07:02:41.171Z,19.20
2018-05-13T07:05:08.698Z,20.13
2018-05-13T07:07:36.256Z,18.63
2018-05-13T07:10:03.826Z,17.20
2018-05-13T07:12:31.378Z,15.60
2018-05-13T07:14:59.033Z,14.20
2018-05-13T07:17:26.596Z,14.60
2018-05-13T07:19:54.146Z,12.90
2018-05-13T07:22:21.681Z,12.40
2018-05-13T07:24:49.225Z,12.50
2018-05-13T07:27:17.561Z,10.90
2018-05-13T07:29:45.167Z,11.35
2018-05-13T07:32:12.668Z,11.35
2018-05-13T07:34:40.229Z,10.55
2018-05-13T07:37:07.775Z,10.15
2018-05-13T07:39:35.416Z,10.13
2018-05-13T07:42:02.971Z,9.82
2018-05-13T07:44:30.522Z,10.07
2018-05-13T07:46:58.073Z,9.32
2018-05-13T07:49:25.630Z,10.45
2018-05-13T07:51:53.924Z,9.52
2018-05-13T07:54:21.487Z,9.43
2018-05-13T07:56:49.011Z,9.05
2018-05-13T07:59:16.631Z,9.13
2018-05-13T08:01:44.920Z,10.05
2018-05-13T08:04:12.451Z,9.23
2018-05-13T08:06:40.015Z,8.10
2018-05-13T08:09:07.762Z,9.07
2018-05-13T08:11:35.298Z,9.48
2018-05-13T08:14:06.956Z,8.85
2018-05-13T08:16:34.488Z,8.70
2018-05-13T08:19:02.061Z,8.75
2018-05-13T08:21:29.660Z,8.20
2018-05-13T08:23:57.204Z,8.00
2018-05-13T08:26:24.736Z,8.45
2018-05-13T08:28:52.292Z,9.35
2018-05-13T08:31:20.717Z,8.95
2018-05-13T08:33:48.239Z,8.60
2018-05-13T08:36:15.779Z,8.60
2018-05-13T08:38:43.291Z,8.23
2018-05-13T08:41:10.831Z,9.02
2018-05-13T08:43:38.389Z,7.72
2018-05-13T08:46:05.932Z,8.43
2018-05-13T08:48:33.491Z,7.85
2018-05-13T08:51:01.812Z,7.90
2018-05-13T08:53:29.327Z,6.90
2018-05-13T08:55:57.641Z,6.85
2018-05-13T08:58:25.163Z,6.62
2018-05-13T09:00:53.281Z,6.40
2018-05-13T09:03:21.172Z,5.93
2018-05-13T09:05:48.728Z,5.93
2018-05-13T09:08:16.249Z,5.75
2018-05-13T09:10:43.783Z,5.53
2018-05-13T09:13:11.311Z,5.00
2018-05-13T09:15:38.855Z,5.07
2018-05-13T09:18:06.384Z,4.78
2018-05-13T09:20:34.009Z,5.20
2018-05-13T09:23:01.488Z,4.78
2018-05-13T09:25:29.029Z,5.70
2018-05-13T09:27:56.562Z,5.28
2018-05-13T09:30:24.132Z,4.55
2018-05-13T09:32:51.654Z,4.95
2018-05-13T09:35:19.196Z,4.10
2018-05-13T09:37:46.727Z,4.43
2018-05-13T09:40:14.271Z,4.60
2018-05-13T09:42:41.808Z,4.62
2018-05-13T09:45:10.112Z,4.53
2018-05-13T09:47:37.644Z,4.68
2018-05-13T09:50:05.939Z,4.32
2018-05-13T09:52:33.479Z,4.50
2018-05-13T09:55:01.775Z,4.20
2018-05-13T09:57:29.311Z,4.90
2018-05-13T09:59:57.599Z,4.60
2018-05-13T10:02:25.164Z,4.65
2018-05-13T10:04:53.449Z,4.22
2018-05-13T10:07:20.987Z,3.75
2018-05-13T10:09:49.315Z,4.05
2018-05-13T10:12:16.850Z,3.87
2018-05-13T10:14:44.368Z,4.15
2018-05-13T10:17:11.914Z,3.72
2018-05-13T10:19:39.439Z,3.50
2018-05-13T10:22:06.988Z,3.50
2018-05-13T10:24:34.511Z,3.50
2018-05-13T10:27:02.861Z,3.35
2018-05-13T10:29:30.384Z,3.60
2018-05-13T10:31:57.923Z,3.67
2018-05-13T10:34:25.444Z,3.08
2018-05-13T10:36:53.757Z,3.50
2018-05-13T10:39:21.283Z,3.33
2018-05-13T10:41:48.863Z,3.20
2018-05-13T10:44:16.394Z,3.00
2018-05-13T10:46:43.927Z,3.10
2018-05-13T10:49:11.468Z,2.92
2018-05-13T10:51:39.020Z,3.13
2018-05-13T10:54:06.559Z,2.83
2018-05-13T10:56:34.141Z,3.60
2018-05-13T10:59:01.695Z,3.37
2018-05-13T11:01:29.248Z,3.33
2018-05-13T11:03:56.785Z,3.12
2018-05-13T11:06:24.299Z,3.30
2018-05-13T11:08:51.873Z,3.28
2018-05-13T11:11:19.427Z,3.50
2018-05-13T11:13:46.974Z,3.30
2018-05-13T11:16:14.512Z,2.80
2018-05-13T11:18:42.068Z,2.95
2018-05-13T11:21:09.597Z,3.17
2018-05-13T11:23:37.138Z,3.00
2018-05-13T11:26:04.665Z,3.33
2018-05-13T11:28:32.200Z,3.60
2018-05-13T11:30:59.722Z,3.12
2018-05-13T11:33:27.258Z,2.97
2018-05-13T11:35:54.772Z,3.10
2018-05-13T11:38:22.317Z,3.05
2018-05-13T11:40:49.852Z,3.05
2018-05-13T11:43:17.397Z,2.70
2018-05-13T11:45:45.681Z,3.07
2018-05-13T11:48:14.000Z,2.97
2018-05-13T11:50:41.541Z,3.10
2018-05-13T11:53:09.089Z,3.65
2018-05-13T11:55:36.607Z,3.50
2018-05-13T11:58:04.336Z,4.05
2018-05-13T12:00:31.870Z,3.33
2018-05-13T12:02:59.404Z,3.42
2018-05-13T12:05:27.689Z,3.50
2018-05-13T12:07:55.243Z,3.43
2018-05-13T12:10:23.525Z,3.47
2018-05-13T12:12:51.043Z,2.92
2018-05-13T12:15:18.592Z,3.00
2018-05-13T12:17:46.125Z,3.20
2018-05-13T12:20:13.663Z,2.70
2018-05-13T12:22:41.189Z,2.92
2018-05-13T12:25:09.501Z,3.20
2018-05-13T12:27:37.025Z,2.83
2018-05-13T12:30:04.596Z,2.65
2018-05-13T12:32:32.116Z,2.78
2018-05-13T12:34:59.651Z,2.80
2018-05-13T12:37:27.168Z,3.22
2018-05-13T12:39:55.473Z,3.07
2018-05-13T12:42:23.438Z,3.33
2018-05-13T12:44:50.985Z,3.10
2018-05-13T12:47:18.510Z,3.33
2018-05-13T12:49:46.047Z,3.35
2018-05-13T12:52:13.561Z,3.20
2018-05-13T12:54:41.091Z,3.40
2018-05-13T12:57:08.617Z,3.17
2018-05-13T12:59:36.159Z,3.60
2018-05-13T13:02:03.704Z,3.10
2018-05-13T13:04:31.239Z,3.53
2018-05-13T13:06:58.773Z,2.77
2018-05-13T13:09:27.130Z,3.10
2018-05-13T13:11:54.633Z,3.33
2018-05-13T13:14:22.170Z,3.00
2018-05-13T13:16:50.580Z,2.95
2018-05-13T13:19:18.135Z,3.25
2018-05-13T13:21:45.651Z,2.80
2018-05-13T13:24:13.176Z,2.60
2018-05-13T13:26:40.715Z,2.80
2018-05-13T13:29:08.240Z,3.03
2018-05-13T13:31:35.784Z,3.53
2018-05-13T13:34:03.309Z,3.67
2018-05-13T13:36:30.853Z,2.93
2018-05-13T13:38:58.369Z,3.33
2018-05-13T13:41:25.903Z,3.22
2018-05-13T13:43:53.420Z,3.00
2018-05-13T13:46:20.984Z,3.03
2018-05-13T13:48:48.518Z,2.87
2018-05-13T13:51:16.160Z,3.30
2018-05-13T13:53:43.709Z,3.33
2018-05-13T13:56:11.255Z,3.00
2018-05-13T13:58:38.795Z,3.13
2018-05-13T14:01:06.323Z,3.20
2018-05-13T14:03:33.843Z,3.33
2018-05-13T14:06:01.393Z,3.07
2018-05-13T14:08:28.922Z,3.60
2018-05-13T14:10:56.455Z,3.30
2018-05-13T14:13:23.983Z,3.10
2018-05-13T14:15:51.532Z,3.23
2018-05-13T14:18:19.825Z,3.33
2018-05-13T14:20:47.355Z,3.20
2018-05-13T14:23:14.863Z,3.53
2018-05-13T14:25:42.402Z,2.73
2018-05-13T14:28:09.998Z,2.97
2018-05-13T14:30:37.493Z,3.33
2018-05-13T14:33:05.038Z,3.47
2018-05-13T14:35:32.558Z,2.97
2018-05-13T14:38:00.230Z,2.80
2018-05-13T14:40:27.686Z,3.20
2018-05-13T14:42:55.365Z,3.30
2018-05-13T14:45:22.927Z,3.33
2018-05-13T14:47:50.543Z,2.97
2018-05-13T14:50:17.984Z,3.20
2018-05-13T14:52:45.524Z,3.20
2018-05-13T14:55:13.057Z,3.40
2018-05-13T14:57:40.589Z,3.37
2018-05-13T15:00:08.103Z,3.30
2018-05-13T15:02:36.407Z,3.43
2018-05-13T15:05:03.982Z,3.27
2018-05-13T15:07:31.699Z,3.07
2018-05-13T15:10:00.004Z,3.63
2018-05-13T15:12:27.554Z,3.10
2018-05-13T15:14:55.074Z,3.50
2018-05-13T15:17:22.625Z,3.57
2018-05-13T15:19:50.212Z,3.60
2018-05-13T15:22:17.751Z,3.60
2018-05-13T15:24:45.303Z,3.43
2018-05-13T15:27:12.873Z,3.73
2018-05-13T15:29:40.420Z,3.67
2018-05-13T15:32:07.952Z,3.73
2018-05-13T15:34:35.471Z,3.90
2018-05-13T15:37:03.780Z,3.50
2018-05-13T15:39:32.177Z,3.60
2018-05-13T15:41:59.884Z,3.63
2018-05-13T15:44:28.170Z,3.63
2018-05-13T15:46:55.707Z,3.60
2018-05-13T15:49:23.987Z,3.60
2018-05-13T15:51:51.512Z,3.27
2018-05-13T15:54:19.058Z,4.07
2018-05-13T15:56:46.575Z,3.80
2018-05-13T15:59:14.129Z,3.60
2018-05-13T16:01:41.663Z,3.50
2018-05-13T16:04:09.211Z,3.73
2018-05-13T16:06:36.765Z,3.60
2018-05-13T16:09:05.071Z,3.30
2018-05-13T16:11:32.589Z,3.47
2018-05-13T16:14:00.132Z,3.40
2018-05-13T16:16:27.649Z,3.33
2018-05-13T16:18:55.382Z,3.40
2018-05-13T16:21:22.835Z,3.13
2018-05-13T16:23:50.386Z,3.37
2018-05-13T16:26:17.895Z,2.90
2018-05-13T16:28:45.426Z,3.20
2018-05-13T16:31:12.961Z,3.40
2018-05-13T16:33:40.495Z,3.23
2018-05-13T16:36:08.020Z,3.10
2018-05-13T16:38:35.601Z,3.27
2018-05-13T16:41:03.124Z,3.20
2018-05-13T16:43:31.438Z,2.90
2018-05-13T16:45:58.956Z,3.17
2018-05-13T16:48:27.267Z,3.17
2018-05-13T16:50:54.797Z,2.93
2018-05-13T16:53:22.341Z,2.97
2018-05-13T16:55:49.864Z,2.87
2018-05-13T16:58:17.404Z,3.00
2018-05-13T17:00:44.926Z,2.90
2018-05-13T17:03:13.228Z,2.83
2018-05-13T17:05:40.768Z,2.77
2018-05-13T17:08:08.350Z,3.00
2018-05-13T17:10:36.629Z,2.70
2018-05-13T17:13:04.149Z,3.00
2018-05-13T17:15:32.443Z,2.70
2018-05-13T17:17:59.968Z,3.30
2018-05-13T17:20:27.503Z,3.13
2018-05-13T17:22:55.803Z,3.43
2018-05-13T17:25:23.355Z,3.27
2018-05-13T17:27:50.880Z,2.83
2018-05-13T17:30:18.428Z,2.60
2018-05-13T17:32:45.952Z,2.77
2018-05-13T17:35:13.492Z,2.60
2018-05-13T17:37:41.085Z,2.57
2018-05-13T17:40:08.568Z,2.87
2018-05-13T17:42:36.093Z,2.90
2018-05-13T17:45:03.649Z,2.87
2018-05-13T17:47:31.168Z,2.60
2018-05-13T17:49:58.902Z,3.00
2018-05-13T17:52:26.408Z,2.70
2018-05-13T17:54:54.723Z,2.90
2018-05-13T17:57:22.349Z,2.97
2018-05-13T17:59:50.103Z,2.90
2018-05-13T18:02:17.707Z,3.63
2018-05-13T18:04:45.200Z,3.27
2018-05-13T18:07:12.742Z,3.53
2018-05-13T18:09:40.336Z,3.23
2018-05-13T18:12:07.894Z,3.10
2018-05-13T18:14:35.483Z,3.53
2018-05-13T18:17:03.020Z,3.47
2018-05-13T18:19:30.555Z,3.97
2018-05-13T18:21:58.091Z,3.33
2018-05-13T18:24:25.669Z,3.40
2018-05-13T18:26:53.193Z,3.30
2018-05-13T18:29:20.710Z,3.33
2018-05-13T18:31:49.027Z,2.73
2018-05-13T18:34:16.548Z,3.33
2018-05-13T18:36:44.852Z,3.40
2018-05-13T18:39:12.477Z,2.63
2018-05-13T18:41:39.947Z,2.80
2018-05-13T18:44:07.519Z,3.03
2018-05-13T18:46:35.071Z,3.20
2018-05-13T18:49:02.716Z,2.80
2018-05-13T18:51:30.276Z,3.10
2018-05-13T18:53:58.564Z,3.53
2018-05-13T18:56:26.303Z,3.80
2018-05-13T18:58:53.834Z,3.07
2018-05-13T19:01:21.384Z,3.17
2018-05-13T19:03:48.903Z,3.07
2018-05-13T19:06:16.704Z,3.27
2018-05-13T19:08:44.255Z,3.00
2018-05-13T19:11:11.821Z,3.33
2018-05-13T19:13:39.344Z,3.50
2018-05-13T19:16:06.876Z,3.60
2018-05-13T19:18:34.403Z,3.60
2018-05-13T19:21:02.065Z,3.10
2018-05-13T19:23:29.587Z,3.23
2018-05-13T19:25:57.132Z,3.50
2018-05-13T19:28:24.652Z,3.83
2018-05-13T19:30:52.314Z,3.33
2018-05-13T19:33:19.814Z,3.40
2018-05-13T19:35:47.347Z,3.50
2018-05-13T19:38:14.894Z,3.70
2018-05-13T19:40:43.889Z,3.40
2018-05-13T19:43:11.439Z,3.47
2018-05-13T19:45:38.969Z,3.23
2018-05-13T19:48:06.537Z,3.60
2018-05-13T19:50:34.068Z,3.20
2018-05-13T19:53:01.612Z,3.50
2018-05-13T19:55:29.906Z,3.77
2018-05-13T19:57:57.436Z,3.57
2018-05-13T20:00:25.005Z,3.70
2018-05-13T20:02:52.796Z,3.80
2018-05-13T20:05:20.099Z,3.97
2018-05-13T20:07:48.417Z,4.07
2018-05-13T20:10:15.948Z,4.80
2018-05-13T20:12:44.516Z,3.73
2018-05-13T20:15:12.045Z,3.73
2018-05-13T20:17:39.899Z,4.67
2018-05-13T20:20:07.448Z,4.20
2018-05-13T20:22:46.779Z,4.80
2018-05-13T20:25:15.038Z,4.37
2018-05-13T20:27:42.809Z,4.10
2018-05-13T20:30:10.351Z,4.70
2018-05-13T20:32:37.896Z,4.43
2018-05-13T20:35:05.462Z,4.77
2018-05-13T20:37:32.995Z,4.10
2018-05-13T20:40:01.291Z,4.03
2018-05-13T20:42:28.857Z,4.10
2018-05-13T20:44:56.485Z,3.63
2018-05-13T20:47:24.043Z,3.60
2018-05-13T20:49:52.346Z,4.00
2018-05-13T20:52:20.109Z,3.77
2018-05-13T20:54:47.641Z,4.07
2018-05-13T20:57:15.949Z,4.03
2018-05-13T20:59:43.499Z,3.67
2018-05-13T21:02:11.781Z,4.00
2018-05-13T21:04:39.515Z,4.00
2018-05-13T21:07:07.040Z,4.20
2018-05-13T21:09:34.580Z,4.37
2018-05-13T21:12:02.972Z,3.77
2018-05-13T21:14:30.513Z,3.87
2018-05-13T21:16:58.028Z,4.63
2018-05-13T21:19:25.690Z,4.33
2018-05-13T21:21:53.880Z,4.03
2018-05-13T21:24:21.417Z,3.93
2018-05-13T21:26:48.972Z,4.20
2018-05-13T21:29:16.552Z,3.73
2018-05-13T21:31:44.067Z,4.50
2018-05-13T21:34:11.601Z,4.43
2018-05-13T21:36:39.196Z,4.20
2018-05-13T21:39:06.727Z,4.77
2018-05-13T21:41:34.253Z,4.50
2018-05-13T21:44:01.786Z,4.13
2018-05-13T21:46:29.322Z,4.80
2018-05-13T21:48:56.930Z,4.17
2018-05-13T21:51:24.452Z,4.47
2018-05-13T21:53:52.751Z,4.37
2018-05-13T21:56:20.265Z,4.10
2018-05-13T21:58:47.838Z,4.30
2018-05-13T22:01:15.404Z,4.23
2018-05-13T22:03:43.720Z,4.10
2018-05-13T22:06:12.051Z,4.43
2018-05-13T22:08:39.567Z,4.20
2018-05-13T22:11:07.100Z,4.60
2018-05-13T22:13:34.621Z,4.43
2018-05-13T22:16:02.151Z,4.60
2018-05-13T22:18:29.663Z,4.30
2018-05-13T22:20:57.260Z,5.00
2018-05-13T22:23:24.747Z,4.43
2018-05-13T22:25:52.275Z,4.47
2018-05-13T22:28:19.788Z,4.20
2018-05-13T22:30:48.089Z,5.03
2018-05-13T22:33:15.599Z,4.17
2018-05-13T22:35:43.136Z,4.80
2018-05-13T22:38:10.662Z,4.73
2018-05-13T22:40:38.199Z,5.00
2018-05-13T22:43:05.718Z,4.80
2018-05-13T22:45:33.272Z,4.73
2018-05-13T22:48:00.794Z,4.90
2018-05-13T22:50:28.340Z,4.83
2018-05-13T22:52:55.867Z,5.00
2018-05-13T22:55:23.398Z,4.80
2018-05-13T22:57:50.916Z,5.20
2018-05-13T23:00:18.474Z,5.00
2018-05-13T23:02:46.009Z,5.00
2018-05-13T23:05:13.559Z,5.10
2018-05-13T23:07:41.860Z,4.80
2018-05-13T23:10:09.401Z,5.20
2018-05-13T23:12:37.702Z,4.90
2018-05-13T23:15:05.236Z,4.87
2018-05-13T23:17:33.538Z,5.40
2018-05-13T23:20:01.068Z,4.90
2018-05-13T23:22:35.208Z,5.27
2018-05-13T23:25:02.740Z,5.00
2018-05-13T23:27:31.042Z,4.80
2018-05-13T23:29:58.574Z,5.10
2018-05-13T23:32:26.876Z,5.10
2018-05-13T23:34:54.400Z,5.07
2018-05-13T23:37:22.717Z,5.13
2018-05-13T23:39:51.003Z,4.90
2018-05-13T23:42:18.555Z,5.57
2018-05-13T23:44:46.081Z,4.90
2018-05-13T23:47:13.612Z,4.90
2018-05-13T23:49:41.133Z,5.40
2018-05-13T23:52:08.664Z,5.50
2018-05-13T23:54:36.180Z,5.60
2018-05-13T23:57:03.707Z,4.87
2018-05-13T23:59:31.229Z,5.20
